sensor_id;sensor_type;location;lat;lon;timestamp;temperature;humidity
21061;DHT22;10689;50.836;3.266;2023-02-01T00:02:01;7.90;99.90
21061;DHT22;10689;50.836;3.266;2023-02-01T00:04:41;7.80;99.90
21061;DHT22;10689;50.836;3.266;2023-02-01T00:07:15;7.80;99.90
21061;DHT22;10689;50.836;3.266;2023-02-01T00:09:49;7.80;99.90
21061;DHT22;10689;50.836;3.266;2023-02-01T00:12:21;7.80;99.90
21061;DHT22;10689;50.836;3.266;2023-02-01T00:14:49;7.90;99.90
21061;DHT22;10689;50.836;3.266;2023-02-01T00:17:42;7.90;99.90
21061;DHT22;10689;50.836;3.266;2023-02-01T00:20:16;7.90;99.90
21061;DHT22;10689;50.836;3.266;2023-02-01T00:22:42;8.10;99.90
21061;DHT22;10689;50.836;3.266;2023-02-01T00:25:11;8.20;99.90
21061;DHT22;10689;50.836;3.266;2023-02-01T00:27:43;8.20;99.90
21061;DHT22;10689;50.836;3.266;2023-02-01T00:30:09;8.00;99.90
21061;DHT22;10689;50.836;3.266;2023-02-01T00:32:47;7.90;99.90
21061;DHT22;10689;50.836;3.266;2023-02-01T00:35:27;8.00;99.90
21061;DHT22;10689;50.836;3.266;2023-02-01T00:37:52;8.00;99.90
21061;DHT22;10689;50.836;3.266;2023-02-01T00:40:18;8.10;99.90
21061;DHT22;10689;50.836;3.266;2023-02-01T00:42:44;8.00;99.90
21061;DHT22;10689;50.836;3.266;2023-02-01T00:45:10;8.00;99.90
21061;DHT22;10689;50.836;3.266;2023-02-01T00:47:39;7.90;99.90
21061;DHT22;10689;50.836;3.266;2023-02-01T00:50:05;8.00;99.90
21061;DHT22;10689;50.836;3.266;2023-02-01T00:52:31;8.00;99.90
21061;DHT22;10689;50.836;3.266;2023-02-01T00:55:05;7.90;99.90
21061;DHT22;10689;50.836;3.266;2023-02-01T00:57:31;7.80;99.90
21061;DHT22;10689;50.836;3.266;2023-02-01T00:59:59;7.70;99.90
21061;DHT22;10689;50.836;3.266;2023-02-01T01:02:26;7.80;99.90
21061;DHT22;10689;50.836;3.266;2023-02-01T01:04:52;7.70;99.90
21061;DHT22;10689;50.836;3.266;2023-02-01T01:07:18;7.60;99.90
21061;DHT22;10689;50.836;3.266;2023-02-01T01:09:44;7.50;99.90
21061;DHT22;10689;50.836;3.266;2023-02-01T01:12:09;7.50;99.90
21061;DHT22;10689;50.836;3.266;2023-02-01T01:14:35;7.40;99.90
21061;DHT22;10689;50.836;3.266;2023-02-01T01:17:01;7.30;99.90
21061;DHT22;10689;50.836;3.266;2023-02-01T01:19:26;7.30;99.90
21061;DHT22;10689;50.836;3.266;2023-02-01T01:21:53;7.20;99.90
21061;DHT22;10689;50.836;3.266;2023-02-01T01:24:19;7.20;99.90
21061;DHT22;10689;50.836;3.266;2023-02-01T01:26:45;7.20;99.90
21061;DHT22;10689;50.836;3.266;2023-02-01T01:29:11;7.30;99.90
21061;DHT22;10689;50.836;3.266;2023-02-01T01:31:36;7.20;99.90
21061;DHT22;10689;50.836;3.266;2023-02-01T01:34:04;7.30;99.90
21061;DHT22;10689;50.836;3.266;2023-02-01T01:36:32;7.30;99.90
21061;DHT22;10689;50.836;3.266;2023-02-01T01:39:00;7.20;99.90
21061;DHT22;10689;50.836;3.266;2023-02-01T01:41:30;7.20;99.90
21061;DHT22;10689;50.836;3.266;2023-02-01T01:43:59;7.20;99.90
21061;DHT22;10689;50.836;3.266;2023-02-01T01:46:34;7.10;99.90
21061;DHT22;10689;50.836;3.266;2023-02-01T01:49:16;7.10;99.90
21061;DHT22;10689;50.836;3.266;2023-02-01T01:51:52;7.20;99.90
21061;DHT22;10689;50.836;3.266;2023-02-01T01:54:25;7.20;99.90
21061;DHT22;10689;50.836;3.266;2023-02-01T01:56:57;7.20;99.90
21061;DHT22;10689;50.836;3.266;2023-02-01T01:59:25;7.10;99.90
21061;DHT22;10689;50.836;3.266;2023-02-01T02:01:53;7.10;99.90
21061;DHT22;10689;50.836;3.266;2023-02-01T02:04:23;7.10;99.90
21061;DHT22;10689;50.836;3.266;2023-02-01T02:07:05;7.10;99.90
21061;DHT22;10689;50.836;3.266;2023-02-01T02:09:33;7.10;99.90
21061;DHT22;10689;50.836;3.266;2023-02-01T02:12:02;7.10;99.90
21061;DHT22;10689;50.836;3.266;2023-02-01T02:14:28;7.00;99.90
21061;DHT22;10689;50.836;3.266;2023-02-01T02:28:06;6.90;99.90
21061;DHT22;10689;50.836;3.266;2023-02-01T02:30:43;6.90;99.90
21061;DHT22;10689;50.836;3.266;2023-02-01T02:35:48;6.90;99.90
21061;DHT22;10689;50.836;3.266;2023-02-01T02:43:38;6.80;99.90
21061;DHT22;10689;50.836;3.266;2023-02-01T02:46:34;6.80;99.90
21061;DHT22;10689;50.836;3.266;2023-02-01T02:49:26;6.80;99.90
21061;DHT22;10689;50.836;3.266;2023-02-01T02:52:09;6.80;99.90
21061;DHT22;10689;50.836;3.266;2023-02-01T02:54:59;6.70;99.90
21061;DHT22;10689;50.836;3.266;2023-02-01T02:57:37;6.70;99.90
21061;DHT22;10689;50.836;3.266;2023-02-01T03:00:31;6.70;99.90
21061;DHT22;10689;50.836;3.266;2023-02-01T03:03:16;6.60;99.90
21061;DHT22;10689;50.836;3.266;2023-02-01T03:06:00;6.60;99.90
21061;DHT22;10689;50.836;3.266;2023-02-01T03:08:30;6.50;99.90
21061;DHT22;10689;50.836;3.266;2023-02-01T03:11:16;6.50;99.90
21061;DHT22;10689;50.836;3.266;2023-02-01T03:13:58;6.50;99.90
21061;DHT22;10689;50.836;3.266;2023-02-01T03:16:35;6.60;99.90
21061;DHT22;10689;50.836;3.266;2023-02-01T03:19:22;6.60;99.90
21061;DHT22;10689;50.836;3.266;2023-02-01T03:27:07;6.40;99.90
21061;DHT22;10689;50.836;3.266;2023-02-01T03:29:47;6.30;99.90
21061;DHT22;10689;50.836;3.266;2023-02-01T03:32:15;6.40;99.90
21061;DHT22;10689;50.836;3.266;2023-02-01T03:34:41;6.30;99.90
21061;DHT22;10689;50.836;3.266;2023-02-01T03:37:10;6.40;99.90
21061;DHT22;10689;50.836;3.266;2023-02-01T03:39:50;6.30;99.90
21061;DHT22;10689;50.836;3.266;2023-02-01T03:42:37;6.30;99.90
21061;DHT22;10689;50.836;3.266;2023-02-01T03:45:13;6.20;99.90
21061;DHT22;10689;50.836;3.266;2023-02-01T03:47:43;6.30;99.90
21061;DHT22;10689;50.836;3.266;2023-02-01T03:50:15;6.20;99.90
21061;DHT22;10689;50.836;3.266;2023-02-01T03:52:45;6.20;99.90
21061;DHT22;10689;50.836;3.266;2023-02-01T03:55:15;6.20;99.90
21061;DHT22;10689;50.836;3.266;2023-02-01T03:57:46;6.20;99.90
21061;DHT22;10689;50.836;3.266;2023-02-01T04:00:22;6.10;99.90
21061;DHT22;10689;50.836;3.266;2023-02-01T04:02:48;6.10;99.90
21061;DHT22;10689;50.836;3.266;2023-02-01T04:05:13;6.10;99.90
21061;DHT22;10689;50.836;3.266;2023-02-01T04:07:39;6.10;99.90
21061;DHT22;10689;50.836;3.266;2023-02-01T04:10:06;6.10;99.90
21061;DHT22;10689;50.836;3.266;2023-02-01T04:12:32;6.00;99.90
21061;DHT22;10689;50.836;3.266;2023-02-01T04:14:57;6.00;99.90
21061;DHT22;10689;50.836;3.266;2023-02-01T04:17:24;6.00;99.90
21061;DHT22;10689;50.836;3.266;2023-02-01T04:19:55;6.00;99.90
21061;DHT22;10689;50.836;3.266;2023-02-01T04:22:23;6.00;99.90
21061;DHT22;10689;50.836;3.266;2023-02-01T04:24:51;6.00;99.90
21061;DHT22;10689;50.836;3.266;2023-02-01T04:27:18;6.00;99.90
21061;DHT22;10689;50.836;3.266;2023-02-01T04:29:44;6.00;99.90
21061;DHT22;10689;50.836;3.266;2023-02-01T04:32:10;6.00;99.90
21061;DHT22;10689;50.836;3.266;2023-02-01T04:34:36;6.00;99.90
21061;DHT22;10689;50.836;3.266;2023-02-01T04:37:02;5.90;99.90
21061;DHT22;10689;50.836;3.266;2023-02-01T04:39:28;5.90;99.90
21061;DHT22;10689;50.836;3.266;2023-02-01T04:41:54;5.90;99.90
21061;DHT22;10689;50.836;3.266;2023-02-01T04:44:20;5.90;99.90
21061;DHT22;10689;50.836;3.266;2023-02-01T04:46:46;5.90;99.90
21061;DHT22;10689;50.836;3.266;2023-02-01T04:49:13;5.90;99.90
21061;DHT22;10689;50.836;3.266;2023-02-01T04:51:40;5.90;99.90
21061;DHT22;10689;50.836;3.266;2023-02-01T04:54:06;5.90;99.90
21061;DHT22;10689;50.836;3.266;2023-02-01T04:56:31;5.90;99.90
21061;DHT22;10689;50.836;3.266;2023-02-01T04:58:57;6.00;99.90
21061;DHT22;10689;50.836;3.266;2023-02-01T05:01:26;6.00;99.90
21061;DHT22;10689;50.836;3.266;2023-02-01T05:03:52;5.90;99.90
21061;DHT22;10689;50.836;3.266;2023-02-01T05:06:18;5.90;99.90
21061;DHT22;10689;50.836;3.266;2023-02-01T05:08:46;5.90;99.90
21061;DHT22;10689;50.836;3.266;2023-02-01T05:11:13;5.90;99.90
21061;DHT22;10689;50.836;3.266;2023-02-01T05:13:57;5.90;99.90
21061;DHT22;10689;50.836;3.266;2023-02-01T05:16:23;5.80;99.90
21061;DHT22;10689;50.836;3.266;2023-02-01T05:18:51;5.90;99.90
21061;DHT22;10689;50.836;3.266;2023-02-01T05:21:17;6.00;99.90
21061;DHT22;10689;50.836;3.266;2023-02-01T05:23:44;6.00;99.90
21061;DHT22;10689;50.836;3.266;2023-02-01T05:26:28;6.00;99.90
21061;DHT22;10689;50.836;3.266;2023-02-01T05:28:56;5.90;99.90
21061;DHT22;10689;50.836;3.266;2023-02-01T05:31:23;5.80;99.90
21061;DHT22;10689;50.836;3.266;2023-02-01T05:33:48;5.80;99.90
21061;DHT22;10689;50.836;3.266;2023-02-01T05:36:14;5.80;99.90
21061;DHT22;10689;50.836;3.266;2023-02-01T05:38:43;5.80;99.90
21061;DHT22;10689;50.836;3.266;2023-02-01T05:41:09;5.80;99.90
21061;DHT22;10689;50.836;3.266;2023-02-01T05:43:35;5.80;99.90
21061;DHT22;10689;50.836;3.266;2023-02-01T05:46:01;5.80;99.90
21061;DHT22;10689;50.836;3.266;2023-02-01T05:48:26;5.80;99.90
21061;DHT22;10689;50.836;3.266;2023-02-01T05:50:52;5.80;99.90
21061;DHT22;10689;50.836;3.266;2023-02-01T05:53:20;5.80;99.90
21061;DHT22;10689;50.836;3.266;2023-02-01T05:55:46;5.70;99.90
21061;DHT22;10689;50.836;3.266;2023-02-01T05:58:12;5.80;99.90
21061;DHT22;10689;50.836;3.266;2023-02-01T06:00:38;5.70;99.90
21061;DHT22;10689;50.836;3.266;2023-02-01T06:03:07;5.80;99.90
21061;DHT22;10689;50.836;3.266;2023-02-01T06:05:33;5.90;99.90
21061;DHT22;10689;50.836;3.266;2023-02-01T06:08:02;5.80;99.90
21061;DHT22;10689;50.836;3.266;2023-02-01T06:10:28;5.70;99.90
21061;DHT22;10689;50.836;3.266;2023-02-01T06:12:56;5.60;99.90
21061;DHT22;10689;50.836;3.266;2023-02-01T06:15:25;5.60;99.90
21061;DHT22;10689;50.836;3.266;2023-02-01T06:17:51;5.60;99.90
21061;DHT22;10689;50.836;3.266;2023-02-01T06:20:17;5.60;99.90
21061;DHT22;10689;50.836;3.266;2023-02-01T06:22:46;5.60;99.90
21061;DHT22;10689;50.836;3.266;2023-02-01T06:25:33;5.60;99.90
21061;DHT22;10689;50.836;3.266;2023-02-01T06:28:19;5.60;99.90
21061;DHT22;10689;50.836;3.266;2023-02-01T06:30:48;5.60;99.90
21061;DHT22;10689;50.836;3.266;2023-02-01T06:33:14;5.60;99.90
21061;DHT22;10689;50.836;3.266;2023-02-01T06:35:42;5.70;99.90
21061;DHT22;10689;50.836;3.266;2023-02-01T06:38:10;5.70;99.90
21061;DHT22;10689;50.836;3.266;2023-02-01T06:40:37;5.60;99.90
21061;DHT22;10689;50.836;3.266;2023-02-01T06:43:26;5.60;99.90
21061;DHT22;10689;50.836;3.266;2023-02-01T06:46:22;5.70;99.90
21061;DHT22;10689;50.836;3.266;2023-02-01T06:49:11;5.70;99.90
21061;DHT22;10689;50.836;3.266;2023-02-01T06:51:56;5.60;99.90
21061;DHT22;10689;50.836;3.266;2023-02-01T06:54:44;5.60;99.90
21061;DHT22;10689;50.836;3.266;2023-02-01T06:57:33;5.60;99.90
21061;DHT22;10689;50.836;3.266;2023-02-01T06:59:59;5.50;99.90
21061;DHT22;10689;50.836;3.266;2023-02-01T07:02:27;5.50;99.90
21061;DHT22;10689;50.836;3.266;2023-02-01T07:04:53;5.50;99.90
21061;DHT22;10689;50.836;3.266;2023-02-01T07:07:19;5.50;99.90
21061;DHT22;10689;50.836;3.266;2023-02-01T07:09:48;5.50;99.90
21061;DHT22;10689;50.836;3.266;2023-02-01T07:12:14;5.50;99.90
21061;DHT22;10689;50.836;3.266;2023-02-01T07:14:39;5.50;99.90
21061;DHT22;10689;50.836;3.266;2023-02-01T07:17:14;5.60;99.90
21061;DHT22;10689;50.836;3.266;2023-02-01T07:19:41;5.60;99.90
21061;DHT22;10689;50.836;3.266;2023-02-01T07:22:16;5.60;99.90
21061;DHT22;10689;50.836;3.266;2023-02-01T07:24:42;5.70;99.90
21061;DHT22;10689;50.836;3.266;2023-02-01T07:27:08;5.70;99.90
21061;DHT22;10689;50.836;3.266;2023-02-01T07:29:34;5.70;99.90
21061;DHT22;10689;50.836;3.266;2023-02-01T07:31:59;5.70;99.90
21061;DHT22;10689;50.836;3.266;2023-02-01T07:34:28;5.70;99.90
21061;DHT22;10689;50.836;3.266;2023-02-01T07:36:54;5.80;99.90
21061;DHT22;10689;50.836;3.266;2023-02-01T07:39:22;5.80;99.90
21061;DHT22;10689;50.836;3.266;2023-02-01T07:41:48;5.80;99.90
21061;DHT22;10689;50.836;3.266;2023-02-01T07:44:17;5.90;99.90
21061;DHT22;10689;50.836;3.266;2023-02-01T07:46:48;5.90;99.90
21061;DHT22;10689;50.836;3.266;2023-02-01T07:49:16;5.90;99.90
21061;DHT22;10689;50.836;3.266;2023-02-01T07:51:43;6.00;99.90
21061;DHT22;10689;50.836;3.266;2023-02-01T07:54:08;6.00;99.90
21061;DHT22;10689;50.836;3.266;2023-02-01T07:56:36;6.10;99.90
21061;DHT22;10689;50.836;3.266;2023-02-01T07:59:04;6.20;99.90
21061;DHT22;10689;50.836;3.266;2023-02-01T08:01:30;6.20;99.90
21061;DHT22;10689;50.836;3.266;2023-02-01T08:03:58;6.20;99.90
21061;DHT22;10689;50.836;3.266;2023-02-01T08:06:25;6.20;99.90
21061;DHT22;10689;50.836;3.266;2023-02-01T08:08:57;6.20;99.90
21061;DHT22;10689;50.836;3.266;2023-02-01T08:11:25;6.20;99.90
21061;DHT22;10689;50.836;3.266;2023-02-01T08:13:51;6.20;99.90
21061;DHT22;10689;50.836;3.266;2023-02-01T08:16:21;6.20;99.90
21061;DHT22;10689;50.836;3.266;2023-02-01T08:18:47;6.30;99.90
21061;DHT22;10689;50.836;3.266;2023-02-01T08:21:24;6.30;99.90
21061;DHT22;10689;50.836;3.266;2023-02-01T08:24:05;6.40;99.90
21061;DHT22;10689;50.836;3.266;2023-02-01T08:26:57;6.40;99.90
21061;DHT22;10689;50.836;3.266;2023-02-01T08:29:32;6.40;99.90
21061;DHT22;10689;50.836;3.266;2023-02-01T08:32:06;6.40;99.90
21061;DHT22;10689;50.836;3.266;2023-02-01T08:34:36;6.60;99.90
21061;DHT22;10689;50.836;3.266;2023-02-01T08:37:07;6.60;99.90
21061;DHT22;10689;50.836;3.266;2023-02-01T08:39:32;6.70;99.90
21061;DHT22;10689;50.836;3.266;2023-02-01T08:42:00;6.70;99.90
21061;DHT22;10689;50.836;3.266;2023-02-01T08:44:44;6.70;99.90
21061;DHT22;10689;50.836;3.266;2023-02-01T08:47:10;6.80;99.90
21061;DHT22;10689;50.836;3.266;2023-02-01T08:49:36;6.90;99.90
21061;DHT22;10689;50.836;3.266;2023-02-01T08:52:04;7.00;99.90
21061;DHT22;10689;50.836;3.266;2023-02-01T08:54:30;7.20;99.90
21061;DHT22;10689;50.836;3.266;2023-02-01T08:56:58;7.20;99.90
21061;DHT22;10689;50.836;3.266;2023-02-01T08:59:24;7.30;99.90
21061;DHT22;10689;50.836;3.266;2023-02-01T09:01:57;7.40;99.90
21061;DHT22;10689;50.836;3.266;2023-02-01T09:04:23;7.40;99.90
21061;DHT22;10689;50.836;3.266;2023-02-01T09:06:49;7.30;99.90
21061;DHT22;10689;50.836;3.266;2023-02-01T09:09:15;7.40;99.90
21061;DHT22;10689;50.836;3.266;2023-02-01T09:11:40;7.40;99.90
21061;DHT22;10689;50.836;3.266;2023-02-01T09:14:06;7.60;99.90
21061;DHT22;10689;50.836;3.266;2023-02-01T09:16:34;7.50;99.90
21061;DHT22;10689;50.836;3.266;2023-02-01T09:19:00;7.60;99.90
21061;DHT22;10689;50.836;3.266;2023-02-01T09:21:26;7.50;99.90
21061;DHT22;10689;50.836;3.266;2023-02-01T09:23:54;7.70;99.90
21061;DHT22;10689;50.836;3.266;2023-02-01T09:26:20;7.60;99.90
21061;DHT22;10689;50.836;3.266;2023-02-01T09:28:46;7.60;99.90
21061;DHT22;10689;50.836;3.266;2023-02-01T09:31:12;7.60;99.90
21061;DHT22;10689;50.836;3.266;2023-02-01T09:33:40;7.50;99.90
21061;DHT22;10689;50.836;3.266;2023-02-01T09:36:09;7.60;99.90
21061;DHT22;10689;50.836;3.266;2023-02-01T09:38:35;7.60;99.90
21061;DHT22;10689;50.836;3.266;2023-02-01T09:43:56;7.60;99.90
21061;DHT22;10689;50.836;3.266;2023-02-01T09:46:32;7.60;99.90
21061;DHT22;10689;50.836;3.266;2023-02-01T09:49:04;7.60;99.90
21061;DHT22;10689;50.836;3.266;2023-02-01T09:51:38;7.70;99.90
21061;DHT22;10689;50.836;3.266;2023-02-01T09:54:16;7.80;99.90
21061;DHT22;10689;50.836;3.266;2023-02-01T09:56:48;7.90;99.90
21061;DHT22;10689;50.836;3.266;2023-02-01T09:59:36;8.10;99.90
21061;DHT22;10689;50.836;3.266;2023-02-01T10:02:10;8.30;99.90
21061;DHT22;10689;50.836;3.266;2023-02-01T10:04:39;8.50;99.90
21061;DHT22;10689;50.836;3.266;2023-02-01T10:07:26;8.60;99.90
21061;DHT22;10689;50.836;3.266;2023-02-01T10:10:25;8.70;99.90
21061;DHT22;10689;50.836;3.266;2023-02-01T10:16:06;8.70;99.90
21061;DHT22;10689;50.836;3.266;2023-02-01T10:21:28;8.90;99.90
21061;DHT22;10689;50.836;3.266;2023-02-01T10:27:02;8.90;99.90
21061;DHT22;10689;50.836;3.266;2023-02-01T10:29:37;9.00;99.90
21061;DHT22;10689;50.836;3.266;2023-02-01T10:32:15;9.00;99.90
21061;DHT22;10689;50.836;3.266;2023-02-01T10:34:44;9.10;99.90
21061;DHT22;10689;50.836;3.266;2023-02-01T10:37:28;9.10;99.90
21061;DHT22;10689;50.836;3.266;2023-02-01T10:40:12;9.20;99.90
21061;DHT22;10689;50.836;3.266;2023-02-01T10:42:40;9.30;99.90
21061;DHT22;10689;50.836;3.266;2023-02-01T10:45:11;9.30;99.90
21061;DHT22;10689;50.836;3.266;2023-02-01T10:47:41;9.30;99.90
21061;DHT22;10689;50.836;3.266;2023-02-01T10:53:04;9.40;99.90
21061;DHT22;10689;50.836;3.266;2023-02-01T10:55:47;9.50;99.90
21061;DHT22;10689;50.836;3.266;2023-02-01T10:58:33;9.60;99.90
21061;DHT22;10689;50.836;3.266;2023-02-01T11:01:01;9.70;99.90
21061;DHT22;10689;50.836;3.266;2023-02-01T11:03:33;9.80;99.90
21061;DHT22;10689;50.836;3.266;2023-02-01T11:06:28;10.00;99.90
21061;DHT22;10689;50.836;3.266;2023-02-01T11:08:57;9.90;99.90
21061;DHT22;10689;50.836;3.266;2023-02-01T11:11:24;9.90;99.90
21061;DHT22;10689;50.836;3.266;2023-02-01T11:13:59;10.00;99.90
21061;DHT22;10689;50.836;3.266;2023-02-01T11:16:32;10.00;99.90
21061;DHT22;10689;50.836;3.266;2023-02-01T11:18:59;10.00;99.90
21061;DHT22;10689;50.836;3.266;2023-02-01T11:21:25;9.90;99.90
21061;DHT22;10689;50.836;3.266;2023-02-01T11:23:51;9.90;99.90
21061;DHT22;10689;50.836;3.266;2023-02-01T11:26:25;10.10;99.90
21061;DHT22;10689;50.836;3.266;2023-02-01T11:29:03;10.20;99.90
21061;DHT22;10689;50.836;3.266;2023-02-01T11:31:30;10.50;99.90
21061;DHT22;10689;50.836;3.266;2023-02-01T11:34:08;10.60;99.90
21061;DHT22;10689;50.836;3.266;2023-02-01T11:36:37;10.40;99.90
21061;DHT22;10689;50.836;3.266;2023-02-01T11:39:08;10.40;99.90
21061;DHT22;10689;50.836;3.266;2023-02-01T11:41:41;10.40;99.90
21061;DHT22;10689;50.836;3.266;2023-02-01T11:44:26;10.40;99.90
21061;DHT22;10689;50.836;3.266;2023-02-01T11:46:54;10.40;99.90
21061;DHT22;10689;50.836;3.266;2023-02-01T11:49:23;10.40;99.90
21061;DHT22;10689;50.836;3.266;2023-02-01T12:05:56;10.50;99.90
21061;DHT22;10689;50.836;3.266;2023-02-01T12:08:38;10.50;99.90
21061;DHT22;10689;50.836;3.266;2023-02-01T12:11:29;10.40;99.90
21061;DHT22;10689;50.836;3.266;2023-02-01T12:20:25;10.10;99.90
21061;DHT22;10689;50.836;3.266;2023-02-01T12:36:38;10.50;99.90
21061;DHT22;10689;50.836;3.266;2023-02-01T12:39:23;10.70;99.90
21061;DHT22;10689;50.836;3.266;2023-02-01T12:42:16;10.70;99.90
21061;DHT22;10689;50.836;3.266;2023-02-01T12:47:18;10.50;99.90
21061;DHT22;10689;50.836;3.266;2023-02-01T12:52:40;10.40;99.90
21061;DHT22;10689;50.836;3.266;2023-02-01T12:57:47;10.40;99.90
21061;DHT22;10689;50.836;3.266;2023-02-01T13:06:13;10.40;99.90
21061;DHT22;10689;50.836;3.266;2023-02-01T13:09:07;10.60;99.90
21061;DHT22;10689;50.836;3.266;2023-02-01T13:11:37;10.60;99.90
21061;DHT22;10689;50.836;3.266;2023-02-01T13:16:53;10.60;99.90
21061;DHT22;10689;50.836;3.266;2023-02-01T13:19:29;10.50;99.90
21061;DHT22;10689;50.836;3.266;2023-02-01T13:21:59;10.60;99.90
21061;DHT22;10689;50.836;3.266;2023-02-01T13:24:44;10.60;99.90
21061;DHT22;10689;50.836;3.266;2023-02-01T13:27:13;10.70;99.90
21061;DHT22;10689;50.836;3.266;2023-02-01T13:32:24;10.90;99.90
21061;DHT22;10689;50.836;3.266;2023-02-01T13:35:19;10.80;99.90
21061;DHT22;10689;50.836;3.266;2023-02-01T13:43:19;10.60;99.90
21061;DHT22;10689;50.836;3.266;2023-02-01T13:45:53;10.50;99.90
21061;DHT22;10689;50.836;3.266;2023-02-01T13:48:28;10.40;99.90
21061;DHT22;10689;50.836;3.266;2023-02-01T13:50:57;10.40;99.90
21061;DHT22;10689;50.836;3.266;2023-02-01T13:53:29;10.30;99.90
21061;DHT22;10689;50.836;3.266;2023-02-01T13:56:01;10.30;99.90
21061;DHT22;10689;50.836;3.266;2023-02-01T13:58:36;10.40;99.90
21061;DHT22;10689;50.836;3.266;2023-02-01T14:11:46;10.90;99.90
21061;DHT22;10689;50.836;3.266;2023-02-01T14:19:32;11.00;99.90
21061;DHT22;10689;50.836;3.266;2023-02-01T14:22:00;11.20;99.90
21061;DHT22;10689;50.836;3.266;2023-02-01T14:27:00;11.30;99.90
21061;DHT22;10689;50.836;3.266;2023-02-01T14:29:44;11.10;99.90
21061;DHT22;10689;50.836;3.266;2023-02-01T14:32:21;11.10;99.90
21061;DHT22;10689;50.836;3.266;2023-02-01T14:42:33;10.90;99.90
21061;DHT22;10689;50.836;3.266;2023-02-01T14:50:36;10.70;99.90
21061;DHT22;10689;50.836;3.266;2023-02-01T14:58:15;10.70;99.90
21061;DHT22;10689;50.836;3.266;2023-02-01T15:00:55;10.60;99.90
21061;DHT22;10689;50.836;3.266;2023-02-01T15:05:59;10.60;99.90
21061;DHT22;10689;50.836;3.266;2023-02-01T15:08:32;10.50;99.90
21061;DHT22;10689;50.836;3.266;2023-02-01T15:11:01;10.40;99.90
21061;DHT22;10689;50.836;3.266;2023-02-01T15:13:33;10.40;99.90
21061;DHT22;10689;50.836;3.266;2023-02-01T15:16:13;10.40;99.90
21061;DHT22;10689;50.836;3.266;2023-02-01T15:18:40;10.40;99.90
21061;DHT22;10689;50.836;3.266;2023-02-01T15:21:15;10.40;99.90
21061;DHT22;10689;50.836;3.266;2023-02-01T15:23:42;10.40;99.90
21061;DHT22;10689;50.836;3.266;2023-02-01T15:26:11;10.20;99.90
21061;DHT22;10689;50.836;3.266;2023-02-01T15:28:49;10.10;99.90
21061;DHT22;10689;50.836;3.266;2023-02-01T15:31:14;10.10;99.90
21061;DHT22;10689;50.836;3.266;2023-02-01T15:33:58;10.10;99.90
21061;DHT22;10689;50.836;3.266;2023-02-01T15:36:24;10.10;99.90
21061;DHT22;10689;50.836;3.266;2023-02-01T15:39:22;10.10;99.90
21061;DHT22;10689;50.836;3.266;2023-02-01T15:41:56;10.10;99.90
21061;DHT22;10689;50.836;3.266;2023-02-01T15:44:32;10.10;99.90
21061;DHT22;10689;50.836;3.266;2023-02-01T15:46:58;10.00;99.90
21061;DHT22;10689;50.836;3.266;2023-02-01T15:49:36;10.00;99.90
21061;DHT22;10689;50.836;3.266;2023-02-01T15:52:03;10.00;99.90
21061;DHT22;10689;50.836;3.266;2023-02-01T15:54:46;10.00;99.90
21061;DHT22;10689;50.836;3.266;2023-02-01T15:57:22;9.90;99.90
21061;DHT22;10689;50.836;3.266;2023-02-01T15:59:56;9.80;99.90
21061;DHT22;10689;50.836;3.266;2023-02-01T16:02:35;9.80;99.90
21061;DHT22;10689;50.836;3.266;2023-02-01T16:05:04;9.80;99.90
21061;DHT22;10689;50.836;3.266;2023-02-01T16:07:32;9.70;99.90
21061;DHT22;10689;50.836;3.266;2023-02-01T16:10:00;9.70;99.90
21061;DHT22;10689;50.836;3.266;2023-02-01T16:15:04;9.60;99.90
21061;DHT22;10689;50.836;3.266;2023-02-01T16:17:32;9.50;99.90
21061;DHT22;10689;50.836;3.266;2023-02-01T16:19:58;9.50;99.90
21061;DHT22;10689;50.836;3.266;2023-02-01T16:22:24;9.50;99.90
21061;DHT22;10689;50.836;3.266;2023-02-01T16:24:50;9.70;99.90
21061;DHT22;10689;50.836;3.266;2023-02-01T16:27:16;9.60;99.90
21061;DHT22;10689;50.836;3.266;2023-02-01T16:29:43;9.60;99.90
21061;DHT22;10689;50.836;3.266;2023-02-01T16:32:18;9.60;99.90
21061;DHT22;10689;50.836;3.266;2023-02-01T16:34:47;9.50;99.90
21061;DHT22;10689;50.836;3.266;2023-02-01T16:37:20;9.50;99.90
21061;DHT22;10689;50.836;3.266;2023-02-01T16:39:46;9.50;99.90
21061;DHT22;10689;50.836;3.266;2023-02-01T16:42:13;9.50;99.90
21061;DHT22;10689;50.836;3.266;2023-02-01T16:44:40;9.50;99.90
21061;DHT22;10689;50.836;3.266;2023-02-01T16:47:21;9.60;99.90
21061;DHT22;10689;50.836;3.266;2023-02-01T16:49:50;9.50;99.90
21061;DHT22;10689;50.836;3.266;2023-02-01T16:52:24;9.40;99.90
21061;DHT22;10689;50.836;3.266;2023-02-01T16:54:50;9.60;99.90
21061;DHT22;10689;50.836;3.266;2023-02-01T16:57:17;9.50;99.90
21061;DHT22;10689;50.836;3.266;2023-02-01T16:59:44;9.60;99.90
21061;DHT22;10689;50.836;3.266;2023-02-01T17:02:12;9.70;99.90
21061;DHT22;10689;50.836;3.266;2023-02-01T17:04:38;9.60;99.90
21061;DHT22;10689;50.836;3.266;2023-02-01T17:07:04;9.50;99.90
21061;DHT22;10689;50.836;3.266;2023-02-01T17:09:35;9.50;99.90
21061;DHT22;10689;50.836;3.266;2023-02-01T17:12:03;9.50;99.90
21061;DHT22;10689;50.836;3.266;2023-02-01T17:14:30;9.40;99.90
21061;DHT22;10689;50.836;3.266;2023-02-01T17:16:59;9.40;99.90
21061;DHT22;10689;50.836;3.266;2023-02-01T17:19:25;9.50;99.90
21061;DHT22;10689;50.836;3.266;2023-02-01T17:21:53;9.50;99.90
21061;DHT22;10689;50.836;3.266;2023-02-01T17:24:31;9.60;99.90
21061;DHT22;10689;50.836;3.266;2023-02-01T17:26:57;9.50;99.90
21061;DHT22;10689;50.836;3.266;2023-02-01T17:29:23;9.70;99.90
21061;DHT22;10689;50.836;3.266;2023-02-01T17:31:53;9.90;99.90
21061;DHT22;10689;50.836;3.266;2023-02-01T17:34:20;9.70;99.90
21061;DHT22;10689;50.836;3.266;2023-02-01T17:36:49;9.40;99.90
21061;DHT22;10689;50.836;3.266;2023-02-01T17:39:16;9.60;99.90
21061;DHT22;10689;50.836;3.266;2023-02-01T17:42:01;9.60;99.90
21061;DHT22;10689;50.836;3.266;2023-02-01T17:44:26;9.60;99.90
21061;DHT22;10689;50.836;3.266;2023-02-01T17:46:53;9.80;99.90
21061;DHT22;10689;50.836;3.266;2023-02-01T17:49:20;9.80;99.90
21061;DHT22;10689;50.836;3.266;2023-02-01T17:51:47;9.80;99.90
21061;DHT22;10689;50.836;3.266;2023-02-01T17:54:20;9.70;99.90
21061;DHT22;10689;50.836;3.266;2023-02-01T17:56:46;9.50;99.90
21061;DHT22;10689;50.836;3.266;2023-02-01T17:59:15;9.70;99.90
21061;DHT22;10689;50.836;3.266;2023-02-01T18:01:44;9.80;99.90
21061;DHT22;10689;50.836;3.266;2023-02-01T18:04:15;9.50;99.90
21061;DHT22;10689;50.836;3.266;2023-02-01T18:06:41;9.60;99.90
21061;DHT22;10689;50.836;3.266;2023-02-01T18:09:06;9.60;99.90
21061;DHT22;10689;50.836;3.266;2023-02-01T18:11:33;9.40;99.90
21061;DHT22;10689;50.836;3.266;2023-02-01T18:13:59;9.40;99.90
21061;DHT22;10689;50.836;3.266;2023-02-01T18:16:28;9.30;99.90
21061;DHT22;10689;50.836;3.266;2023-02-01T18:18:55;9.20;99.90
21061;DHT22;10689;50.836;3.266;2023-02-01T18:21:42;9.20;99.90
21061;DHT22;10689;50.836;3.266;2023-02-01T18:24:14;9.30;99.90
21061;DHT22;10689;50.836;3.266;2023-02-01T18:26:43;9.60;99.90
21061;DHT22;10689;50.836;3.266;2023-02-01T18:29:09;9.40;99.90